createdAt,value
2018-05-09T00:01:08.509Z,4.70
2018-05-09T00:03:35.854Z,5.03
2018-05-09T00:06:03.233Z,4.93
2018-05-09T00:08:30.921Z,4.10
2018-05-09T00:10:58.833Z,3.80
2018-05-09T00:13:26.233Z,4.07
2018-05-09T00:15:53.704Z,3.70
2018-05-09T00:18:21.044Z,4.40
2018-05-09T00:20:48.400Z,3.90
2018-05-09T00:23:15.734Z,4.50
2018-05-09T00:25:43.092Z,5.10
2018-05-09T00:28:10.425Z,4.63
2018-05-09T00:30:37.787Z,4.83
2018-05-09T00:33:05.141Z,5.23
2018-05-09T00:35:32.514Z,4.80
2018-05-09T00:38:00.456Z,7.83
2018-05-09T00:40:28.115Z,4.10
2018-05-09T00:42:55.601Z,4.70
2018-05-09T00:45:22.978Z,4.43
2018-05-09T00:47:50.314Z,4.33
2018-05-09T00:50:17.665Z,5.33
2018-05-09T00:52:44.997Z,4.77
2018-05-09T00:55:12.358Z,5.50
2018-05-09T00:57:39.689Z,4.63
2018-05-09T01:00:07.042Z,4.60
2018-05-09T01:02:34.398Z,4.87
2018-05-09T01:05:01.939Z,4.83
2018-05-09T01:07:29.845Z,5.20
2018-05-09T01:09:57.327Z,4.83
2018-05-09T01:12:24.709Z,4.83
2018-05-09T01:14:52.041Z,4.50
2018-05-09T01:17:19.490Z,4.63
2018-05-09T01:19:46.813Z,4.67
2018-05-09T01:22:14.169Z,5.07
2018-05-09T01:24:41.499Z,5.60
2018-05-09T01:27:08.862Z,5.07
2018-05-09T01:29:36.214Z,5.87
2018-05-09T01:32:03.595Z,5.67
2018-05-09T01:34:31.667Z,5.20
2018-05-09T01:36:59.535Z,5.03
2018-05-09T01:39:27.019Z,5.00
2018-05-09T01:41:54.381Z,5.00
2018-05-09T01:44:21.738Z,5.33
2018-05-09T01:46:49.104Z,4.70
2018-05-09T01:49:16.445Z,4.87
2018-05-09T01:51:43.835Z,5.90
2018-05-09T01:54:11.225Z,6.17
2018-05-09T01:56:38.591Z,5.57
2018-05-09T01:59:05.924Z,5.43
2018-05-09T02:01:33.374Z,5.43
2018-05-09T02:04:01.428Z,4.90
2018-05-09T02:06:28.780Z,4.60
2018-05-09T02:08:56.126Z,5.80
2018-05-09T02:11:23.507Z,5.17
2018-05-09T02:13:50.833Z,5.87
2018-05-09T02:16:18.194Z,5.17
2018-05-09T02:18:45.530Z,5.20
2018-05-09T02:21:12.891Z,5.70
2018-05-09T02:23:40.231Z,5.30
2018-05-09T02:26:07.709Z,5.13
2018-05-09T02:28:35.633Z,5.50
2018-05-09T02:31:03.199Z,5.47
2018-05-09T02:33:30.706Z,5.00
2018-05-09T02:35:58.035Z,4.93
2018-05-09T02:38:25.401Z,5.83
2018-05-09T02:40:52.730Z,6.00
2018-05-09T02:43:20.117Z,7.03
2018-05-09T02:45:47.469Z,5.27
2018-05-09T02:48:14.838Z,6.27
2018-05-09T02:50:42.178Z,6.17
2018-05-09T02:53:09.538Z,5.87
2018-05-09T02:55:37.292Z,5.37
2018-05-09T02:58:05.118Z,6.50
2018-05-09T03:00:32.713Z,7.07
2018-05-09T03:03:00.070Z,5.03
2018-05-09T03:05:27.417Z,5.97
2018-05-09T03:07:54.791Z,5.93
2018-05-09T03:10:22.131Z,5.30
2018-05-09T03:12:49.496Z,6.97
2018-05-09T03:15:16.830Z,6.50
2018-05-09T03:17:44.193Z,6.07
2018-05-09T03:20:11.534Z,5.90
2018-05-09T03:22:38.939Z,5.80
2018-05-09T03:25:06.742Z,5.67
2018-05-09T03:27:34.308Z,6.23
2018-05-09T03:30:01.790Z,6.87
2018-05-09T03:32:29.151Z,6.87
2018-05-09T03:34:56.497Z,6.77
2018-05-09T03:37:23.893Z,6.27
2018-05-09T03:39:51.388Z,7.30
2018-05-09T03:42:18.744Z,5.70
2018-05-09T03:44:46.086Z,7.07
2018-05-09T03:47:13.453Z,6.40
2018-05-09T03:49:40.800Z,6.13
2018-05-09T03:52:08.396Z,5.43
2018-05-09T03:54:36.233Z,5.97
2018-05-09T03:57:03.631Z,6.50
2018-05-09T03:59:30.986Z,5.70
2018-05-09T04:02:04.100Z,5.10
2018-05-09T04:04:37.663Z,5.37
2018-05-09T04:07:10.769Z,5.50
2018-05-09T04:09:44.129Z,5.13
2018-05-09T04:12:11.476Z,5.00
2018-05-09T04:14:39.158Z,4.73
2018-05-09T04:17:07.109Z,4.77
2018-05-09T04:19:34.549Z,4.90
2018-05-09T04:22:01.973Z,4.82
2018-05-09T04:24:29.362Z,5.45
2018-05-09T04:26:56.694Z,5.87
2018-05-09T04:29:24.065Z,5.03
2018-05-09T04:31:51.415Z,4.80
2018-05-09T04:34:18.777Z,4.70
2018-05-09T04:36:46.115Z,5.37
2018-05-09T04:39:13.471Z,5.37
2018-05-09T04:41:40.856Z,5.13
2018-05-09T04:44:08.734Z,5.13
2018-05-09T04:46:36.395Z,5.37
2018-05-09T04:49:03.901Z,5.90
2018-05-09T04:51:31.255Z,5.37
2018-05-09T04:53:58.613Z,6.03
2018-05-09T04:56:25.946Z,6.13
2018-05-09T04:58:53.302Z,5.87
2018-05-09T05:01:20.644Z,6.40
2018-05-09T05:03:48.010Z,5.77
2018-05-09T05:06:15.356Z,6.00
2018-05-09T05:08:42.814Z,6.30
2018-05-09T05:11:10.476Z,6.47
2018-05-09T05:13:38.582Z,6.53
2018-05-09T05:16:05.926Z,6.33
2018-05-09T05:18:33.705Z,5.97
2018-05-09T05:21:01.053Z,6.67
2018-05-09T05:23:28.408Z,6.17
2018-05-09T05:25:55.742Z,6.97
2018-05-09T05:28:23.089Z,7.03
2018-05-09T05:30:50.454Z,7.10
2018-05-09T05:33:17.799Z,7.77
2018-05-09T05:35:45.161Z,6.87
2018-05-09T05:38:12.501Z,7.07
2018-05-09T05:40:40.143Z,7.83
2018-05-09T05:43:07.691Z,7.60
2018-05-09T05:45:35.073Z,7.07
2018-05-09T05:48:02.419Z,7.07
2018-05-09T05:50:29.783Z,8.00
2018-05-09T05:52:57.124Z,8.00
2018-05-09T05:55:24.493Z,7.73
2018-05-09T05:57:51.842Z,7.93
2018-05-09T06:00:19.206Z,7.77
2018-05-09T06:02:46.547Z,7.80
2018-05-09T06:05:13.913Z,7.70
2018-05-09T06:07:41.590Z,7.27
2018-05-09T06:10:09.535Z,8.10
2018-05-09T06:12:36.990Z,8.63
2018-05-09T06:15:04.414Z,27.47
2018-05-09T06:17:31.762Z,36.97
2018-05-09T06:19:59.141Z,27.00
2018-05-09T06:22:26.496Z,16.03
2018-05-09T06:24:53.874Z,12.60
2018-05-09T06:27:21.204Z,8.63
2018-05-09T06:29:48.562Z,8.40
2018-05-09T06:32:15.929Z,7.93
2018-05-09T06:34:43.315Z,8.80
2018-05-09T06:37:11.250Z,8.40
2018-05-09T06:39:38.923Z,8.97
2018-05-09T06:42:06.401Z,7.73
2018-05-09T06:44:33.766Z,8.73
2018-05-09T06:47:01.104Z,6.63
2018-05-09T06:49:28.472Z,8.33
2018-05-09T06:51:55.809Z,7.57
2018-05-09T06:54:23.163Z,7.33
2018-05-09T06:56:50.527Z,22.17
2018-05-09T06:59:17.871Z,11.80
2018-05-09T07:01:45.242Z,8.23
2018-05-09T07:04:12.706Z,8.00
2018-05-09T07:06:40.778Z,7.77
2018-05-09T07:09:07.954Z,9.80
2018-05-09T07:11:35.325Z,10.10
2018-05-09T07:14:02.672Z,10.07
2018-05-09T07:16:30.036Z,9.40
2018-05-09T07:18:57.381Z,9.07
2018-05-09T07:21:24.746Z,8.50
2018-05-09T07:23:52.079Z,6.37
2018-05-09T07:26:19.455Z,7.90
2018-05-09T07:28:46.793Z,8.13
2018-05-09T07:31:14.158Z,7.73
2018-05-09T07:33:41.958Z,8.17
2018-05-09T07:36:09.415Z,7.63
2018-05-09T07:38:36.903Z,8.47
2018-05-09T07:41:04.271Z,8.50
2018-05-09T07:43:31.603Z,6.53
2018-05-09T07:45:59.829Z,6.93
2018-05-09T07:48:27.170Z,8.17
2018-05-09T07:50:54.531Z,9.50
2018-05-09T07:53:21.865Z,8.50
2018-05-09T07:55:49.245Z,8.23
2018-05-09T07:58:16.599Z,8.10
2018-05-09T08:00:44.218Z,7.60
2018-05-09T08:03:12.056Z,8.60
2018-05-09T08:05:39.476Z,7.60
2018-05-09T08:08:06.912Z,8.37
2018-05-09T08:10:34.279Z,6.80
2018-05-09T08:13:01.616Z,6.23
2018-05-09T08:15:28.981Z,5.63
2018-05-09T08:17:56.310Z,5.73
2018-05-09T08:20:23.681Z,4.70
2018-05-09T08:22:51.043Z,5.77
2018-05-09T08:25:18.378Z,4.90
2018-05-09T08:27:45.736Z,7.17
2018-05-09T08:30:13.682Z,8.07
2018-05-09T08:32:41.345Z,7.40
2018-05-09T08:35:08.737Z,5.17
2018-05-09T08:37:36.106Z,4.73
2018-05-09T08:40:03.442Z,5.47
2018-05-09T08:42:30.810Z,5.50
2018-05-09T08:44:58.147Z,5.00
2018-05-09T08:47:25.510Z,7.67
2018-05-09T08:49:52.840Z,5.83
2018-05-09T08:52:20.210Z,7.30
2018-05-09T08:54:47.552Z,4.60
2018-05-09T08:57:15.188Z,5.93
2018-05-09T08:59:43.170Z,19.17
2018-05-09T09:02:10.596Z,8.67
2018-05-09T09:04:38.015Z,6.93
2018-05-09T09:07:05.644Z,5.93
2018-05-09T09:09:33.137Z,5.53
2018-05-09T09:12:00.508Z,5.03
2018-05-09T09:14:27.851Z,5.83
2018-05-09T09:16:55.217Z,5.03
2018-05-09T09:19:22.572Z,4.97
2018-05-09T09:21:49.934Z,5.00
2018-05-09T09:24:17.269Z,5.00
2018-05-09T09:26:44.629Z,4.77
2018-05-09T09:29:12.036Z,5.77
2018-05-09T09:31:39.453Z,5.63
2018-05-09T09:34:07.366Z,7.67
2018-05-09T09:36:34.786Z,6.77
2018-05-09T09:39:02.217Z,7.10
2018-05-09T09:41:29.699Z,7.07
2018-05-09T09:43:56.995Z,5.60
2018-05-09T09:46:24.360Z,5.33
2018-05-09T09:48:51.690Z,5.23
2018-05-09T09:51:19.023Z,5.60
2018-05-09T09:53:46.378Z,4.87
2018-05-09T09:56:13.722Z,5.50
2018-05-09T09:58:41.083Z,4.33
2018-05-09T10:01:08.795Z,6.43
2018-05-09T10:03:36.448Z,5.93
2018-05-09T10:06:03.937Z,5.20
2018-05-09T10:08:31.319Z,5.77
2018-05-09T10:10:58.653Z,15.80
2018-05-09T10:13:26.006Z,5.40
2018-05-09T10:15:53.375Z,7.27
2018-05-09T10:18:20.747Z,10.73
2018-05-09T10:20:48.087Z,9.57
2018-05-09T10:23:15.456Z,5.80
2018-05-09T10:25:42.798Z,5.33
2018-05-09T10:28:10.430Z,4.10
2018-05-09T10:30:38.475Z,6.30
2018-05-09T10:33:05.871Z,6.80
2018-05-09T10:35:33.322Z,5.40
2018-05-09T10:38:00.688Z,7.80
2018-05-09T10:40:28.131Z,7.57
2018-05-09T10:42:55.513Z,8.17
2018-05-09T10:45:22.844Z,6.03
2018-05-09T10:47:50.206Z,6.83
2018-05-09T10:50:17.550Z,5.53
2018-05-09T10:52:44.908Z,4.70
2018-05-09T10:55:12.251Z,8.20
2018-05-09T10:57:39.907Z,7.00
2018-05-09T11:00:07.557Z,6.07
2018-05-09T11:02:35.064Z,5.70
2018-05-09T11:05:02.441Z,5.40
2018-05-09T11:07:29.796Z,5.17
2018-05-09T11:09:57.128Z,5.07
2018-05-09T11:12:24.485Z,5.87
2018-05-09T11:14:51.815Z,6.03
2018-05-09T11:17:19.185Z,5.40
2018-05-09T11:19:46.564Z,5.97
2018-05-09T11:22:13.911Z,5.77
2018-05-09T11:24:41.608Z,5.43
2018-05-09T11:27:09.382Z,5.00
2018-05-09T11:29:36.840Z,4.90
2018-05-09T11:32:04.229Z,5.97
2018-05-09T11:34:31.646Z,8.40
2018-05-09T11:36:58.976Z,8.50
2018-05-09T11:39:26.336Z,6.57
2018-05-09T11:41:53.679Z,8.40
2018-05-09T11:44:21.039Z,7.60
2018-05-09T11:46:48.377Z,4.90
2018-05-09T11:49:15.778Z,5.67
2018-05-09T11:51:43.108Z,4.87
2018-05-09T11:54:10.830Z,6.10
2018-05-09T11:56:38.262Z,6.23
2018-05-09T11:59:05.672Z,5.37
2018-05-09T12:01:32.997Z,4.57
2018-05-09T12:04:00.358Z,5.80
2018-05-09T12:06:27.712Z,5.10
2018-05-09T12:08:55.080Z,5.77
2018-05-09T12:11:22.404Z,4.80
2018-05-09T12:13:49.765Z,4.07
2018-05-09T12:16:17.102Z,4.07
2018-05-09T12:18:44.466Z,5.97
2018-05-09T12:21:12.145Z,6.07
2018-05-09T12:23:39.670Z,4.40
2018-05-09T12:26:07.153Z,3.87
2018-05-09T12:28:34.513Z,4.47
2018-05-09T12:31:02.007Z,4.22
2018-05-09T12:33:29.363Z,4.13
2018-05-09T12:35:56.700Z,4.60
2018-05-09T12:38:24.065Z,3.90
2018-05-09T12:40:51.410Z,5.17
2018-05-09T12:43:18.781Z,4.60
2018-05-09T12:45:46.212Z,4.70
2018-05-09T12:48:13.610Z,4.10
2018-05-09T12:50:41.497Z,5.30
2018-05-09T12:53:08.899Z,4.00
2018-05-09T12:55:36.379Z,5.20
2018-05-09T12:58:03.709Z,4.03
2018-05-09T13:00:31.133Z,4.73
2018-05-09T13:02:58.433Z,4.80
2018-05-09T13:05:25.794Z,4.10
2018-05-09T13:07:53.129Z,5.10
2018-05-09T13:10:20.486Z,4.00
2018-05-09T13:12:47.814Z,5.00
2018-05-09T13:15:15.165Z,4.70
2018-05-09T13:17:42.915Z,4.60
2018-05-09T13:20:10.383Z,5.10
2018-05-09T13:22:37.863Z,4.23
2018-05-09T13:25:05.226Z,4.73
2018-05-09T13:27:32.554Z,5.10
2018-05-09T13:29:59.914Z,3.70
2018-05-09T13:32:27.254Z,4.00
2018-05-09T13:34:54.614Z,4.97
2018-05-09T13:37:21.944Z,4.60
2018-05-09T13:39:49.386Z,4.63
2018-05-09T13:42:16.683Z,5.60
2018-05-09T13:44:44.356Z,6.50
2018-05-09T13:47:12.199Z,4.90
2018-05-09T13:49:39.707Z,4.70
2018-05-09T13:52:07.146Z,4.77
2018-05-09T13:54:34.515Z,4.67
2018-05-09T13:57:01.862Z,4.53
2018-05-09T13:59:29.234Z,3.70
2018-05-09T14:01:56.567Z,4.77
2018-05-09T14:04:23.924Z,4.40
2018-05-09T14:06:51.370Z,4.47
2018-05-09T14:09:18.733Z,3.87
2018-05-09T14:11:46.093Z,4.63
2018-05-09T14:14:13.620Z,4.50
2018-05-09T14:16:41.093Z,4.47
2018-05-09T14:19:08.691Z,3.80
2018-05-09T14:21:36.108Z,10.00
2018-05-09T14:24:03.426Z,5.40
2018-05-09T14:26:30.824Z,3.67
2018-05-09T14:28:58.165Z,5.57
2018-05-09T14:31:26.366Z,4.60
2018-05-09T14:33:53.702Z,3.87
2018-05-09T14:36:21.065Z,4.20
2018-05-09T14:38:48.412Z,3.80
2018-05-09T14:41:15.774Z,4.20
2018-05-09T14:43:43.357Z,5.10
2018-05-09T14:46:10.817Z,3.67
2018-05-09T14:48:38.266Z,3.70
2018-05-09T14:51:05.625Z,3.37
2018-05-09T14:53:32.949Z,3.80
2018-05-09T14:56:00.307Z,3.40
2018-05-09T14:58:27.652Z,3.30
2018-05-09T15:00:55.036Z,3.10
2018-05-09T15:03:22.402Z,3.53
2018-05-09T15:05:49.806Z,4.00
2018-05-09T15:08:17.187Z,3.90
2018-05-09T15:10:45.062Z,5.43
2018-05-09T15:13:12.490Z,4.80
2018-05-09T15:15:39.997Z,4.00
2018-05-09T15:18:07.345Z,5.40
2018-05-09T15:20:34.703Z,3.30
2018-05-09T15:23:02.039Z,3.93
2018-05-09T15:25:29.416Z,3.70
2018-05-09T15:27:56.783Z,4.03
2018-05-09T15:30:24.139Z,4.07
2018-05-09T15:32:51.565Z,4.10
2018-05-09T15:35:18.887Z,3.58
2018-05-09T15:37:46.576Z,3.33
2018-05-09T15:40:14.522Z,3.00
2018-05-09T15:42:41.997Z,11.53
2018-05-09T15:45:09.466Z,9.70
2018-05-09T15:47:36.857Z,10.37
2018-05-09T15:50:04.190Z,4.30
2018-05-09T15:52:31.567Z,3.20
2018-05-09T15:54:58.918Z,3.10
2018-05-09T15:57:26.276Z,3.13
2018-05-09T15:59:53.611Z,3.97
2018-05-09T16:02:20.968Z,3.27
2018-05-09T16:04:48.310Z,3.90
2018-05-09T16:07:16.227Z,2.90
2018-05-09T16:09:43.912Z,3.80
2018-05-09T16:12:11.413Z,3.03
2018-05-09T16:14:38.781Z,3.27
2018-05-09T16:17:06.168Z,2.97
2018-05-09T16:19:33.529Z,3.30
2018-05-09T16:22:00.924Z,3.40
2018-05-09T16:24:28.249Z,2.60
2018-05-09T16:26:55.609Z,3.17
2018-05-09T16:29:22.949Z,2.67
2018-05-09T16:31:50.313Z,3.17
2018-05-09T16:34:17.995Z,2.90
2018-05-09T16:36:45.737Z,3.57
2018-05-09T16:39:13.194Z,3.20
2018-05-09T16:41:40.553Z,3.60
2018-05-09T16:44:07.884Z,3.40
2018-05-09T16:46:35.246Z,3.63
2018-05-09T16:49:02.606Z,4.10
2018-05-09T16:51:29.961Z,3.57
2018-05-09T16:53:57.297Z,4.73
2018-05-09T16:56:24.631Z,3.13
2018-05-09T16:58:51.992Z,3.90
2018-05-09T17:01:19.340Z,4.40
2018-05-09T17:03:48.603Z,2.77
2018-05-09T17:06:18.755Z,3.70
2018-05-09T17:08:46.684Z,4.20
2018-05-09T17:11:14.029Z,3.80
2018-05-09T17:13:41.391Z,3.23
2018-05-09T17:16:08.740Z,3.47
2018-05-09T17:18:36.129Z,3.07
2018-05-09T17:21:03.466Z,3.20
2018-05-09T17:23:30.837Z,3.63
2018-05-09T17:25:58.167Z,4.13
2018-05-09T17:28:25.564Z,2.90
2018-05-09T17:30:52.894Z,3.80
2018-05-09T17:33:20.286Z,3.90
2018-05-09T17:35:48.189Z,3.90
2018-05-09T17:38:15.873Z,2.97
2018-05-09T17:40:43.362Z,4.60
2018-05-09T17:43:10.750Z,3.60
2018-05-09T17:45:38.087Z,2.93
2018-05-09T17:48:05.463Z,3.10
2018-05-09T17:50:32.806Z,3.23
2018-05-09T17:53:00.174Z,3.77
2018-05-09T17:55:27.518Z,3.23
2018-05-09T17:57:54.933Z,3.87
2018-05-09T18:00:22.279Z,3.17
2018-05-09T18:02:49.934Z,3.57
2018-05-09T18:05:17.967Z,3.90
2018-05-09T18:07:45.419Z,3.37
2018-05-09T18:10:12.870Z,5.50
2018-05-09T18:12:40.271Z,3.17
2018-05-09T18:15:07.613Z,15.50
2018-05-09T18:17:35.010Z,10.23
2018-05-09T18:20:02.358Z,4.37
2018-05-09T18:22:29.751Z,4.70
2018-05-09T18:24:57.138Z,5.20
2018-05-09T18:27:24.492Z,4.83
2018-05-09T18:29:51.927Z,4.40
2018-05-09T18:32:20.663Z,3.90
2018-05-09T18:34:49.040Z,4.87
2018-05-09T18:37:16.396Z,4.80
2018-05-09T18:39:43.944Z,4.00
2018-05-09T18:42:11.294Z,4.20
2018-05-09T18:44:38.691Z,4.40
2018-05-09T18:47:06.022Z,4.37
2018-05-09T18:49:33.426Z,4.40
2018-05-09T18:52:00.762Z,4.47
2018-05-09T18:54:28.127Z,4.50
2018-05-09T18:56:55.573Z,5.00
2018-05-09T18:59:22.939Z,4.33
2018-05-09T19:01:51.482Z,4.60
2018-05-09T19:04:19.458Z,5.13
2018-05-09T19:06:46.856Z,4.67
2018-05-09T19:09:14.369Z,4.30
2018-05-09T19:11:41.697Z,5.10
2018-05-09T19:14:09.080Z,5.10
2018-05-09T19:16:36.410Z,5.10
2018-05-09T19:19:03.787Z,4.90
2018-05-09T19:21:31.135Z,5.00
2018-05-09T19:23:58.498Z,4.83
2018-05-09T19:26:25.835Z,4.63
2018-05-09T19:28:53.239Z,4.63
2018-05-09T19:31:20.892Z,4.80
2018-05-09T19:33:48.551Z,4.57
2018-05-09T19:36:15.963Z,4.87
2018-05-09T19:38:43.423Z,7.10
2018-05-09T19:41:10.772Z,7.70
2018-05-09T19:43:38.113Z,11.33
2018-05-09T19:46:06.727Z,7.33
2018-05-09T19:48:34.109Z,7.90
2018-05-09T19:51:02.078Z,8.13
2018-05-09T19:53:29.418Z,6.23
2018-05-09T19:55:56.784Z,7.20
2018-05-09T19:58:24.127Z,6.00
2018-05-09T20:00:51.710Z,6.30
2018-05-09T20:03:19.908Z,5.87
2018-05-09T20:05:47.605Z,6.53
2018-05-09T20:08:14.951Z,6.60
2018-05-09T20:10:42.319Z,6.63
2018-05-09T20:13:09.672Z,7.30
2018-05-09T20:15:37.221Z,7.10
2018-05-09T20:18:04.643Z,7.67
2018-05-09T20:20:32.007Z,6.63
2018-05-09T20:22:59.343Z,9.13
2018-05-09T20:25:26.766Z,7.97
2018-05-09T20:27:54.110Z,9.70
2018-05-09T20:30:27.507Z,12.67
2018-05-09T20:32:54.854Z,13.67
2018-05-09T20:35:22.467Z,13.23
2018-05-09T20:37:50.128Z,13.23
2018-05-09T20:40:17.546Z,9.73
2018-05-09T20:42:44.914Z,9.80
2018-05-09T20:45:12.314Z,9.70
2018-05-09T20:47:39.720Z,8.33
2018-05-09T20:50:07.051Z,7.90
2018-05-09T20:52:34.385Z,9.30
2018-05-09T20:55:07.741Z,5.70
2018-05-09T20:57:35.079Z,6.10
2018-05-09T21:00:02.438Z,5.70
2018-05-09T21:02:29.801Z,6.37
2018-05-09T21:04:57.175Z,6.83
2018-05-09T21:07:24.728Z,7.30
2018-05-09T21:09:52.709Z,6.60
2018-05-09T21:12:20.266Z,5.07
2018-05-09T21:14:47.669Z,5.17
2018-05-09T21:17:15.026Z,4.00
2018-05-09T21:19:42.367Z,4.50
2018-05-09T21:22:09.731Z,3.60
2018-05-09T21:24:37.057Z,3.83
2018-05-09T21:27:04.445Z,3.40
2018-05-09T21:29:31.802Z,3.93
2018-05-09T21:31:59.166Z,3.90
2018-05-09T21:34:26.516Z,3.70
2018-05-09T21:36:54.126Z,4.77
2018-05-09T21:39:21.791Z,3.40
2018-05-09T21:41:49.299Z,3.90
2018-05-09T21:44:16.624Z,3.50
2018-05-09T21:46:43.996Z,3.30
2018-05-09T21:49:11.351Z,3.60
2018-05-09T21:51:38.715Z,3.30
2018-05-09T21:54:06.050Z,3.70
2018-05-09T21:56:33.424Z,3.20
2018-05-09T21:59:00.756Z,3.90
2018-05-09T22:01:28.181Z,3.57
2018-05-09T22:03:55.725Z,3.70
2018-05-09T22:06:23.612Z,3.90
2018-05-09T22:08:51.010Z,3.50
2018-05-09T22:11:18.484Z,3.47
2018-05-09T22:13:45.823Z,3.77
2018-05-09T22:16:13.165Z,3.40
2018-05-09T22:18:40.526Z,3.83
2018-05-09T22:21:07.879Z,3.60
2018-05-09T22:23:35.232Z,3.47
2018-05-09T22:26:02.568Z,3.80
2018-05-09T22:28:29.936Z,3.90
2018-05-09T22:30:57.266Z,4.13
2018-05-09T22:33:25.236Z,4.10
2018-05-09T22:35:52.895Z,4.50
2018-05-09T22:38:20.411Z,4.50
2018-05-09T22:40:47.749Z,4.20
2018-05-09T22:43:15.115Z,4.00
2018-05-09T22:45:42.444Z,4.13
2018-05-09T22:48:09.810Z,4.30
2018-05-09T22:50:37.141Z,4.50
2018-05-09T22:53:04.497Z,4.57
2018-05-09T22:55:31.841Z,5.20
2018-05-09T22:57:59.192Z,4.50
2018-05-09T23:00:26.934Z,4.27
2018-05-09T23:02:54.516Z,4.30
2018-05-09T23:05:22.006Z,5.17
2018-05-09T23:07:49.363Z,5.00
2018-05-09T23:10:16.738Z,5.47
2018-05-09T23:12:44.106Z,5.70
2018-05-09T23:15:11.438Z,5.73
2018-05-09T23:17:38.792Z,6.13
2018-05-09T23:20:06.138Z,5.43
2018-05-09T23:22:33.491Z,4.80
2018-05-09T23:25:00.848Z,6.60
2018-05-09T23:27:28.247Z,5.93
2018-05-09T23:29:56.143Z,5.27
2018-05-09T23:32:23.619Z,6.00
2018-05-09T23:34:51.284Z,5.97
2018-05-09T23:37:18.714Z,6.17
2018-05-09T23:39:46.039Z,6.10
2018-05-09T23:42:13.402Z,5.80
2018-05-09T23:44:40.734Z,5.20
2018-05-09T23:47:08.087Z,5.73
2018-05-09T23:49:35.417Z,4.90
2018-05-09T23:52:02.818Z,6.00
2018-05-09T23:54:30.145Z,4.90
2018-05-09T23:56:57.691Z,5.00
2018-05-09T23:59:25.428Z,4.83
